createdAt,value
2018-06-22T00:01:33.563Z,12.73
2018-06-22T00:04:07.150Z,13.03
2018-06-22T00:06:41.300Z,8.07
2018-06-22T00:09:15.344Z,11.83
2018-06-22T00:11:48.357Z,9.47
2018-06-22T00:14:22.096Z,12.43
2018-06-22T00:16:57.604Z,13.93
2018-06-22T00:19:33.494Z,8.03
2018-06-22T00:22:07.386Z,12.85
2018-06-22T00:24:41.029Z,12.53
2018-06-22T00:27:15.187Z,12.27
2018-06-22T00:29:48.558Z,10.30
2018-06-22T00:32:21.332Z,17.13
2018-06-22T00:35:02.424Z,14.03
2018-06-22T00:37:38.692Z,8.57
2018-06-22T00:40:11.877Z,10.93
2018-06-22T00:42:44.838Z,10.70
2018-06-22T00:45:17.288Z,13.65
2018-06-22T00:47:49.946Z,10.00
2018-06-22T00:50:23.931Z,6.63
2018-06-22T00:52:57.016Z,6.53
2018-06-22T00:55:30.130Z,9.20
2018-06-22T00:58:03.396Z,14.67
2018-06-22T01:00:38.562Z,9.20
2018-06-22T01:03:14.777Z,16.27
2018-06-22T01:05:47.817Z,13.80
2018-06-22T01:08:22.017Z,12.40
2018-06-22T01:10:56.669Z,10.93
2018-06-22T01:13:32.134Z,8.70
2018-06-22T01:16:06.054Z,8.47
2018-06-22T01:18:39.697Z,6.20
2018-06-22T01:21:13.013Z,10.60
2018-06-22T01:23:48.751Z,12.47
2018-06-22T01:26:22.370Z,14.07
2018-06-22T01:29:17.177Z,13.77
2018-06-22T01:31:50.291Z,10.30
2018-06-22T01:34:23.616Z,11.35
2018-06-22T01:36:57.602Z,11.90
2018-06-22T01:39:31.762Z,10.13
2018-06-22T01:42:04.635Z,10.83
2018-06-22T01:44:38.281Z,9.90
2018-06-22T01:47:10.817Z,15.23
2018-06-22T01:49:43.621Z,9.83
2018-06-22T01:52:16.212Z,9.87
2018-06-22T01:54:49.187Z,9.73
2018-06-22T01:57:22.633Z,12.33
2018-06-22T01:59:55.369Z,9.40
2018-06-22T02:02:28.113Z,7.97
2018-06-22T02:05:01.133Z,13.23
2018-06-22T02:07:33.948Z,14.93
2018-06-22T02:10:06.919Z,11.93
2018-06-22T02:12:40.077Z,13.60
2018-06-22T02:15:14.116Z,13.87
2018-06-22T02:17:46.676Z,11.38
2018-06-22T02:20:19.580Z,13.57
2018-06-22T02:22:52.186Z,11.57
2018-06-22T02:25:24.955Z,14.30
2018-06-22T02:27:57.876Z,10.30
2018-06-22T02:30:31.137Z,11.83
2018-06-22T02:33:03.866Z,8.10
2018-06-22T02:35:37.977Z,9.30
2018-06-22T02:38:11.385Z,14.27
2018-06-22T02:40:44.968Z,10.37
2018-06-22T02:43:19.091Z,10.60
2018-06-22T02:45:53.089Z,11.45
2018-06-22T02:48:25.713Z,11.93
2018-06-22T02:51:01.804Z,7.17
2018-06-22T02:53:35.658Z,12.67
2018-06-22T02:56:09.137Z,8.47
2018-06-22T02:58:45.425Z,9.27
2018-06-22T03:01:18.854Z,8.50
2018-06-22T03:03:51.654Z,10.43
2018-06-22T03:06:25.336Z,9.63
2018-06-22T03:08:59.227Z,10.37
2018-06-22T03:11:33.970Z,10.63
2018-06-22T03:14:08.696Z,11.17
2018-06-22T03:16:41.287Z,11.73
2018-06-22T03:19:13.814Z,12.20
2018-06-22T03:21:46.625Z,8.93
2018-06-22T03:24:19.227Z,10.50
2018-06-22T03:26:51.755Z,19.60
2018-06-22T03:29:24.682Z,9.20
2018-06-22T03:31:58.580Z,11.77
2018-06-22T03:34:31.452Z,7.43
2018-06-22T03:37:05.633Z,10.30
2018-06-22T03:39:38.357Z,11.07
2018-06-22T03:42:10.893Z,7.57
2018-06-22T03:44:44.606Z,12.93
2018-06-22T03:47:17.839Z,12.20
2018-06-22T03:49:50.241Z,9.20
2018-06-22T03:52:23.306Z,8.93
2018-06-22T03:54:55.849Z,12.07
2018-06-22T03:57:28.933Z,13.77
2018-06-22T04:00:05.022Z,9.97
2018-06-22T04:02:38.876Z,11.70
2018-06-22T04:05:11.656Z,9.38
2018-06-22T04:07:44.842Z,11.07
2018-06-22T04:10:17.580Z,17.83
2018-06-22T04:12:50.205Z,10.85
2018-06-22T04:15:23.328Z,12.10
2018-06-22T04:17:56.351Z,8.70
2018-06-22T04:20:29.418Z,9.60
2018-06-22T04:23:04.593Z,8.27
2018-06-22T04:25:37.880Z,11.63
2018-06-22T04:28:10.372Z,7.40
2018-06-22T04:30:43.724Z,11.00
2018-06-22T04:33:16.389Z,8.43
2018-06-22T04:35:48.998Z,10.07
2018-06-22T04:38:21.916Z,11.30
2018-06-22T04:40:54.284Z,6.30
2018-06-22T04:43:26.904Z,12.80
2018-06-22T04:46:03.848Z,10.87
2018-06-22T04:48:39.254Z,8.93
2018-06-22T04:51:11.839Z,12.33
2018-06-22T04:53:48.518Z,12.47
2018-06-22T04:56:21.456Z,5.53
2018-06-22T04:58:55.458Z,10.87
2018-06-22T05:01:28.760Z,10.50
2018-06-22T05:04:05.469Z,10.80
2018-06-22T05:06:41.897Z,11.47
2018-06-22T05:09:14.382Z,9.53
2018-06-22T05:11:46.793Z,11.07
2018-06-22T05:14:20.488Z,12.80
2018-06-22T05:16:52.928Z,14.67
2018-06-22T05:19:26.508Z,10.87
2018-06-22T05:21:59.132Z,8.93
2018-06-22T05:24:32.302Z,12.47
2018-06-22T05:27:05.717Z,9.43
2018-06-22T05:29:40.893Z,11.70
2018-06-22T05:32:14.128Z,9.10
2018-06-22T05:34:48.464Z,8.57
2018-06-22T05:37:21.379Z,9.67
2018-06-22T05:39:55.237Z,12.20
2018-06-22T05:42:27.758Z,11.77
2018-06-22T05:45:00.580Z,9.10
2018-06-22T05:47:35.390Z,12.50
2018-06-22T05:50:09.748Z,12.20
2018-06-22T05:52:42.493Z,10.70
2018-06-22T05:55:15.133Z,9.77
2018-06-22T05:57:49.112Z,12.73
2018-06-22T06:00:29.249Z,9.10
2018-06-22T06:03:04.181Z,8.93
2018-06-22T06:05:38.697Z,12.00
2018-06-22T06:08:12.467Z,11.17
2018-06-22T06:10:48.255Z,11.43
2018-06-22T06:13:20.802Z,9.23
2018-06-22T06:15:56.020Z,9.77
2018-06-22T06:18:29.136Z,12.43
2018-06-22T06:21:02.141Z,11.05
2018-06-22T06:23:35.507Z,9.50
2018-06-22T06:26:08.272Z,10.52
2018-06-22T06:28:42.602Z,11.23
2018-06-22T06:31:17.310Z,8.90
2018-06-22T06:33:50.668Z,11.50
2018-06-22T06:36:24.872Z,16.47
2018-06-22T06:38:59.132Z,11.07
2018-06-22T06:41:31.759Z,11.75
2018-06-22T06:44:04.385Z,8.93
2018-06-22T06:46:38.946Z,9.83
2018-06-22T06:49:11.504Z,16.73
2018-06-22T06:51:52.360Z,15.93
2018-06-22T06:54:26.967Z,12.20
2018-06-22T06:56:59.408Z,16.30
2018-06-22T06:59:34.069Z,11.23
2018-06-22T07:02:07.332Z,17.57
2018-06-22T07:04:40.588Z,10.70
2018-06-22T07:07:15.732Z,10.60
2018-06-22T07:09:48.285Z,11.75
2018-06-22T07:12:21.824Z,13.33
2018-06-22T07:15:00.437Z,9.53
2018-06-22T07:17:46.700Z,17.00
2018-06-22T07:20:24.703Z,11.17
2018-06-22T07:23:02.717Z,14.83
2018-06-22T07:25:37.964Z,18.77
2018-06-22T07:28:12.211Z,9.23
2018-06-22T07:30:48.612Z,13.17
2018-06-22T07:33:21.169Z,11.20
2018-06-22T07:35:57.408Z,18.10
2018-06-22T07:38:34.703Z,14.57
2018-06-22T07:41:09.799Z,9.40
2018-06-22T07:43:44.199Z,13.17
2018-06-22T07:46:17.820Z,18.00
2018-06-22T07:48:52.685Z,12.07
2018-06-22T07:51:27.709Z,14.90
2018-06-22T07:54:02.634Z,16.67
2018-06-22T07:56:35.880Z,14.50
2018-06-22T07:59:10.269Z,17.90
2018-06-22T08:01:43.358Z,16.70
2018-06-22T08:04:16.879Z,10.70
2018-06-22T08:06:50.815Z,12.87
2018-06-22T08:09:25.469Z,21.23
2018-06-22T08:11:58.927Z,15.57
2018-06-22T08:14:32.061Z,20.33
2018-06-22T08:17:04.708Z,14.87
2018-06-22T08:19:38.943Z,13.80
2018-06-22T08:22:11.632Z,18.02
2018-06-22T08:24:46.596Z,15.50
2018-06-22T08:27:20.400Z,15.87
2018-06-22T08:29:59.004Z,15.00
2018-06-22T08:32:31.356Z,14.53
2018-06-22T08:35:03.981Z,16.27
2018-06-22T08:37:38.443Z,16.50
2018-06-22T08:40:11.210Z,12.83
2018-06-22T08:42:43.825Z,12.37
2018-06-22T08:45:16.393Z,19.03
2018-06-22T08:47:54.116Z,17.43
2018-06-22T08:50:27.781Z,12.33
2018-06-22T08:53:01.421Z,16.47
2018-06-22T08:55:35.929Z,14.03
2018-06-22T08:58:10.459Z,13.97
2018-06-22T09:00:45.396Z,15.87
2018-06-22T09:03:18.208Z,21.87
2018-06-22T09:05:51.251Z,18.03
2018-06-22T09:08:25.197Z,15.70
2018-06-22T09:10:59.324Z,16.90
2018-06-22T09:13:32.702Z,24.93
2018-06-22T09:16:06.142Z,12.80
2018-06-22T09:18:45.857Z,17.23
2018-06-22T09:21:24.219Z,12.60
2018-06-22T09:23:57.337Z,16.03
2018-06-22T09:26:31.157Z,19.65
2018-06-22T09:29:04.253Z,16.48
2018-06-22T09:31:36.682Z,11.53
2018-06-22T09:34:11.439Z,17.87
2018-06-22T09:36:45.083Z,17.70
2018-06-22T09:39:17.555Z,18.07
2018-06-22T09:41:52.602Z,14.43
2018-06-22T09:44:37.116Z,15.57
2018-06-22T09:47:13.540Z,15.15
2018-06-22T09:49:49.652Z,20.42
2018-06-22T09:52:23.577Z,16.35
2018-06-22T09:54:59.628Z,17.20
2018-06-22T09:57:35.163Z,20.40
2018-06-22T10:00:08.926Z,19.33
2018-06-22T10:02:43.010Z,17.23
2018-06-22T10:05:18.744Z,17.50
2018-06-22T10:07:55.926Z,13.47
2018-06-22T10:10:30.342Z,17.23
2018-06-22T10:13:06.248Z,15.77
2018-06-22T10:15:39.700Z,17.63
2018-06-22T10:18:14.772Z,14.47
2018-06-22T10:20:50.275Z,11.17
2018-06-22T10:23:23.249Z,13.50
2018-06-22T10:25:56.481Z,16.13
2018-06-22T10:28:29.428Z,8.43
2018-06-22T10:31:02.797Z,16.20
2018-06-22T10:33:36.723Z,10.07
2018-06-22T10:36:12.481Z,12.03
2018-06-22T10:38:50.196Z,13.40
2018-06-22T10:41:24.032Z,23.70
2018-06-22T10:43:59.650Z,15.80
2018-06-22T10:46:33.565Z,9.93
2018-06-22T10:49:13.481Z,14.43
2018-06-22T10:51:51.263Z,12.73
2018-06-22T10:54:25.259Z,16.17
2018-06-22T10:57:01.705Z,12.23
2018-06-22T10:59:34.311Z,13.73
2018-06-22T11:02:08.714Z,8.50
2018-06-22T11:04:48.782Z,11.40
2018-06-22T11:07:27.793Z,14.87
2018-06-22T11:10:01.834Z,13.60
2018-06-22T11:12:50.229Z,10.10
2018-06-22T11:15:48.710Z,9.63
2018-06-22T11:18:37.024Z,7.63
2018-06-22T11:21:35.502Z,8.67
2018-06-22T11:24:28.375Z,7.47
2018-06-22T11:27:05.736Z,10.57
2018-06-22T11:29:45.884Z,6.90
2018-06-22T11:32:32.598Z,10.67
2018-06-22T11:35:08.478Z,8.87
2018-06-22T11:37:46.895Z,9.13
2018-06-22T11:40:25.600Z,7.23
2018-06-22T11:44:01.730Z,10.80
2018-06-22T11:46:47.550Z,10.65
2018-06-22T11:49:30.525Z,10.60
2018-06-22T11:52:12.212Z,9.77
2018-06-22T11:54:51.544Z,12.00
2018-06-22T11:57:27.304Z,10.85
2018-06-22T12:00:08.781Z,13.23
2018-06-22T12:02:46.853Z,8.77
2018-06-22T12:05:27.637Z,9.77
2018-06-22T12:08:04.605Z,11.02
2018-06-22T12:10:42.501Z,8.73
2018-06-22T12:13:19.542Z,10.30
2018-06-22T12:15:57.113Z,7.93
2018-06-22T12:18:30.517Z,9.05
2018-06-22T12:21:08.391Z,7.47
2018-06-22T12:23:42.144Z,6.80
2018-06-22T12:26:14.873Z,8.53
2018-06-22T12:28:52.414Z,8.60
2018-06-22T12:31:26.511Z,7.97
2018-06-22T12:34:01.482Z,9.10
2018-06-22T12:36:35.981Z,9.10
2018-06-22T12:39:13.936Z,6.40
2018-06-22T12:41:47.155Z,11.07
2018-06-22T12:44:19.893Z,8.03
2018-06-22T12:46:57.767Z,8.97
2018-06-22T12:49:38.506Z,9.73
2018-06-22T12:52:18.282Z,11.57
2018-06-22T12:54:53.889Z,12.30
2018-06-22T12:57:28.591Z,10.57
2018-06-22T13:00:06.619Z,6.30
2018-06-22T13:02:51.747Z,10.13
2018-06-22T13:05:25.629Z,14.77
2018-06-22T13:08:01.232Z,7.77
2018-06-22T13:10:34.493Z,6.50
2018-06-22T13:13:13.384Z,7.57
2018-06-22T13:16:04.679Z,6.97
2018-06-22T13:18:38.185Z,6.00
2018-06-22T13:21:11.837Z,6.63
2018-06-22T13:23:45.896Z,6.60
2018-06-22T13:26:19.428Z,8.50
2018-06-22T13:28:59.773Z,9.33
2018-06-22T13:31:35.328Z,9.53
2018-06-22T13:34:08.430Z,10.35
2018-06-22T13:36:45.016Z,8.13
2018-06-22T13:39:19.182Z,8.13
2018-06-22T13:42:05.515Z,6.10
2018-06-22T13:44:38.636Z,8.50
2018-06-22T13:47:12.552Z,8.93
2018-06-22T13:49:55.926Z,7.07
2018-06-22T13:52:32.737Z,5.33
2018-06-22T13:55:05.932Z,4.60
2018-06-22T13:57:41.865Z,7.43
2018-06-22T14:00:18.404Z,6.80
2018-06-22T14:02:58.825Z,6.23
2018-06-22T14:05:47.645Z,6.53
2018-06-22T14:08:27.872Z,5.93
2018-06-22T14:11:07.606Z,7.55
2018-06-22T14:13:41.597Z,4.73
2018-06-22T14:16:21.721Z,4.87
2018-06-22T14:19:00.758Z,6.60
2018-06-22T14:21:36.626Z,5.10
2018-06-22T14:24:10.169Z,8.20
2018-06-22T14:26:43.889Z,7.57
2018-06-22T14:29:20.482Z,6.87
2018-06-22T14:31:58.537Z,6.57
2018-06-22T14:34:32.633Z,7.40
2018-06-22T14:37:06.960Z,9.33
2018-06-22T14:39:40.807Z,9.23
2018-06-22T14:42:31.392Z,11.40
2018-06-22T14:45:11.756Z,7.50
2018-06-22T14:47:49.921Z,7.30
2018-06-22T14:50:23.470Z,7.33
2018-06-22T14:53:03.943Z,4.87
2018-06-22T14:56:03.284Z,8.00
2018-06-22T14:58:57.909Z,8.00
2018-06-22T15:01:38.210Z,6.57
2018-06-22T15:04:18.558Z,7.47
2018-06-22T15:06:58.958Z,7.67
2018-06-22T15:09:33.779Z,8.17
2018-06-22T15:12:11.092Z,6.10
2018-06-22T15:14:45.224Z,6.80
2018-06-22T15:17:21.715Z,5.13
2018-06-22T15:19:57.198Z,5.07
2018-06-22T15:22:33.753Z,5.37
2018-06-22T15:25:14.391Z,5.90
2018-06-22T15:27:50.139Z,5.30
2018-06-22T15:30:24.357Z,6.28
2018-06-22T15:45:26.568Z,6.93
2018-06-22T15:48:08.333Z,5.63
2018-06-22T15:50:46.555Z,5.18
2018-06-22T15:53:26.949Z,3.93
2018-06-22T15:56:09.635Z,3.73
2018-06-22T15:58:42.364Z,6.53
2018-06-22T16:01:16.157Z,4.83
2018-06-22T16:03:57.451Z,4.43
2018-06-22T16:06:32.597Z,8.50
2018-06-22T16:09:10.601Z,8.00
2018-06-22T16:11:43.708Z,5.57
2018-06-22T16:14:30.501Z,9.13
2018-06-22T16:17:13.938Z,6.47
2018-06-22T16:19:53.287Z,8.35
2018-06-22T16:22:31.316Z,8.67
2018-06-22T16:25:14.330Z,9.75
2018-06-22T16:27:53.782Z,6.57
2018-06-22T16:30:29.085Z,8.77
2018-06-22T16:33:11.114Z,6.47
2018-06-22T16:35:45.225Z,3.00
2018-06-22T16:38:20.783Z,5.07
2018-06-22T16:40:56.430Z,5.03
2018-06-22T16:43:29.176Z,7.12
2018-06-22T16:46:12.362Z,7.20
2018-06-22T16:48:46.713Z,3.47
2018-06-22T16:51:21.022Z,7.03
2018-06-22T16:54:01.377Z,3.97
2018-06-22T16:56:35.441Z,7.77
2018-06-22T16:59:12.089Z,5.70
2018-06-22T17:01:48.415Z,6.43
2018-06-22T17:04:21.802Z,5.40
2018-06-22T17:07:04.817Z,7.20
2018-06-22T17:09:46.049Z,7.63
2018-06-22T17:12:26.677Z,6.10
2018-06-22T17:15:08.638Z,5.37
2018-06-22T17:17:51.572Z,7.23
2018-06-22T17:20:38.584Z,9.47
2018-06-22T17:23:16.639Z,5.97
2018-06-22T17:25:49.969Z,5.70
2018-06-22T17:28:25.961Z,7.27
2018-06-22T17:31:02.850Z,8.23
2018-06-22T17:33:40.361Z,8.97
2018-06-22T17:36:18.975Z,8.60
2018-06-22T17:39:50.751Z,9.52
2018-06-22T17:42:26.804Z,8.90
2018-06-22T17:45:15.571Z,9.33
2018-06-22T17:47:51.328Z,8.03
2018-06-22T17:50:30.044Z,6.73
2018-06-22T17:53:15.142Z,7.50
2018-06-22T17:55:55.223Z,9.37
2018-06-22T17:58:27.693Z,8.30
2018-06-22T18:01:12.180Z,6.53
2018-06-22T18:03:54.677Z,7.93
2018-06-22T18:06:34.941Z,6.70
2018-06-22T18:09:19.446Z,5.90
2018-06-22T18:11:59.153Z,8.13
2018-06-22T18:14:33.748Z,7.22
2018-06-22T18:17:08.478Z,8.43
2018-06-22T18:19:41.575Z,7.33
2018-06-22T18:22:16.760Z,6.67
2018-06-22T18:24:49.244Z,8.27
2018-06-22T18:27:23.255Z,7.10
2018-06-22T18:29:56.805Z,4.53
2018-06-22T18:32:30.854Z,7.47
2018-06-22T18:35:14.476Z,6.53
2018-06-22T18:37:48.200Z,5.68
2018-06-22T18:40:21.058Z,4.53
2018-06-22T18:42:55.987Z,8.00
2018-06-22T18:45:32.096Z,6.43
2018-06-22T18:48:08.612Z,6.93
2018-06-22T18:50:46.978Z,7.60
2018-06-22T18:53:27.121Z,5.93
2018-06-22T18:56:07.956Z,6.43
2018-06-22T18:58:48.679Z,4.93
2018-06-22T19:01:29.564Z,6.70
2018-06-22T19:04:19.433Z,9.03
2018-06-22T19:06:53.464Z,6.10
2018-06-22T19:09:30.332Z,5.80
2018-06-22T19:12:05.987Z,6.37
2018-06-22T19:14:49.730Z,7.17
2018-06-22T19:17:27.205Z,6.30
2018-06-22T19:20:03.440Z,10.10
2018-06-22T19:22:40.838Z,9.38
2018-06-22T19:25:20.619Z,9.67
2018-06-22T19:27:55.472Z,9.55
2018-06-22T19:30:31.504Z,14.17
2018-06-22T19:33:11.363Z,8.63
2018-06-22T19:35:50.052Z,8.03
2018-06-22T19:38:25.296Z,6.13
2018-06-22T19:41:01.487Z,22.80
2018-06-22T19:43:42.563Z,8.90
2018-06-22T19:46:27.502Z,7.63
2018-06-22T19:49:07.703Z,7.67
2018-06-22T19:51:52.780Z,9.83
2018-06-22T19:54:31.369Z,8.93
2018-06-22T19:57:16.002Z,8.52
2018-06-22T19:59:51.648Z,6.17
2018-06-22T20:02:25.632Z,6.90
2018-06-22T20:05:01.909Z,9.27
2018-06-22T20:07:39.699Z,9.43
2018-06-22T20:10:19.684Z,8.40
2018-06-22T20:13:00.451Z,13.00
2018-06-22T20:15:41.375Z,11.13
2018-06-22T20:18:25.656Z,10.37
2018-06-22T20:21:13.769Z,9.93
2018-06-22T20:23:52.317Z,9.83
2018-06-22T20:26:31.329Z,17.63
2018-06-22T20:29:16.011Z,12.33
2018-06-22T20:31:54.095Z,10.67
2018-06-22T20:34:34.068Z,11.20
2018-06-22T20:37:19.424Z,15.87
2018-06-22T20:40:02.404Z,11.57
2018-06-22T20:42:55.642Z,13.60
2018-06-22T20:45:34.676Z,13.10
2018-06-22T20:48:22.176Z,14.00
2018-06-22T20:51:03.186Z,9.60
2018-06-22T20:53:46.299Z,10.53
2018-06-22T20:56:27.893Z,17.33
2018-06-22T20:59:08.507Z,13.80
2018-06-22T21:01:50.584Z,12.20
2018-06-22T21:04:29.065Z,12.40
2018-06-22T21:07:04.546Z,19.43
2018-06-22T21:09:42.449Z,9.70
2018-06-22T21:12:26.253Z,14.03
2018-06-22T21:14:57.866Z,17.93
2018-06-22T21:17:37.877Z,15.13
2018-06-22T21:20:16.625Z,11.53
2018-06-22T21:22:49.466Z,11.83
2018-06-22T21:25:32.481Z,13.70
2018-06-22T21:28:24.036Z,18.73
2018-06-22T21:31:08.228Z,17.00
2018-06-22T21:33:52.617Z,15.47
2018-06-22T21:36:35.481Z,20.87
2018-06-22T21:39:18.866Z,18.75
2018-06-22T21:42:05.776Z,18.03
2018-06-22T21:44:47.307Z,18.23
2018-06-22T21:47:26.593Z,17.53
2018-06-22T21:50:02.727Z,17.47
2018-06-22T21:52:41.029Z,14.77
2018-06-22T21:55:18.907Z,17.77
2018-06-22T21:57:54.309Z,14.80
2018-06-22T22:00:35.730Z,16.47
2018-06-22T22:03:11.452Z,14.70
2018-06-22T22:05:45.024Z,18.30
2018-06-22T22:08:24.657Z,15.40
2018-06-22T22:11:12.692Z,13.93
2018-06-22T22:13:50.549Z,17.10
2018-06-22T22:16:23.514Z,16.03
2018-06-22T22:18:56.246Z,19.57
2018-06-22T22:21:31.666Z,17.03
2018-06-22T22:24:07.506Z,18.23
2018-06-22T22:26:41.819Z,16.70
2018-06-22T22:29:21.941Z,16.02
2018-06-22T22:31:57.048Z,18.53
2018-06-22T22:34:32.202Z,12.13
2018-06-22T22:37:06.781Z,20.77
2018-06-22T22:39:40.077Z,16.40
2018-06-22T22:42:22.528Z,12.00
2018-06-22T22:45:07.851Z,14.03
2018-06-22T22:47:43.624Z,15.68
2018-06-22T22:50:18.654Z,15.97
2018-06-22T22:52:56.610Z,17.83
2018-06-22T22:55:32.209Z,14.93
2018-06-22T22:58:09.003Z,15.93
2018-06-22T23:00:49.878Z,12.13
2018-06-22T23:03:33.392Z,16.97
2018-06-22T23:06:11.022Z,14.10
2018-06-22T23:08:47.902Z,14.23
2018-06-22T23:11:23.246Z,21.00
2018-06-22T23:13:58.304Z,18.57
2018-06-22T23:16:34.749Z,17.75
2018-06-22T23:19:16.541Z,16.47
2018-06-22T23:21:50.022Z,17.37
2018-06-22T23:24:25.531Z,13.67
2018-06-22T23:26:59.266Z,16.27
2018-06-22T23:29:32.049Z,17.47
2018-06-22T23:32:08.267Z,16.27
2018-06-22T23:34:41.084Z,13.90
2018-06-22T23:37:15.468Z,18.53
2018-06-22T23:39:50.235Z,19.37
2018-06-22T23:42:23.340Z,20.23
2018-06-22T23:44:58.815Z,12.93
2018-06-22T23:47:34.098Z,14.67
2018-06-22T23:50:06.776Z,18.13
2018-06-22T23:52:43.366Z,16.40
2018-06-22T23:55:22.872Z,17.33
2018-06-22T23:57:55.896Z,17.27
